Time;durP1;ratioP1;P1;durP2;ratioP2;P2;SDS_P1;SDS_P2;PMS_P1;PMS_P2;Temp;Humidity;BMP_temperature;BMP_pressure;BME280_temperature;BME280_humidity;BME280_pressure;Samples;Min_cycle;Max_cycle;Signal;HPM_P1;HPM_P2
2021/05/24 00:00:51;;;;;;;10.98;2.78;;;;;;;11.43;73.33;99881.84;5023299;28;20041;-66
2021/05/24 00:03:17;;;;;;;6.95;2.80;;;;;;;11.17;72.92;99829.31;5016311;28;20049;-68
2021/05/24 00:05:43;;;;;;;5.63;2.70;;;;;;;11.54;72.73;99874.50;5014903;28;20103;-68
2021/05/24 00:08:09;;;;;;;11.95;3.10;;;;;;;11.51;72.42;99863.97;4990529;28;20037;-68
2021/05/24 00:10:41;;;;;;;7.32;2.95;;;;;;;11.50;72.90;99870.16;5022195;28;20099;-72
2021/05/24 00:13:09;;;;;;;14.98;3.30;;;;;;;11.51;72.64;99870.13;5021595;28;20076;-68
2021/05/24 00:15:56;;;;;;;10.85;2.92;;;;;;;11.49;72.50;99882.59;5018008;28;20060;-72
2021/05/24 00:18:22;;;;;;;14.88;3.30;;;;;;;11.30;73.17;99869.72;5016022;28;20038;-66
2021/05/24 00:20:54;;;;;;;9.20;3.10;;;;;;;11.25;73.60;99890.19;4987555;28;20042;-67
2021/05/24 00:23:23;;;;;;;5.50;3.22;;;;;;;11.25;73.46;99895.50;4992719;28;20096;-66
2021/05/24 00:25:49;;;;;;;11.70;2.90;;;;;;;11.19;73.27;99883.22;5023433;28;20068;-67
2021/05/24 00:28:16;;;;;;;9.82;3.00;;;;;;;11.18;73.53;99881.47;5014366;28;20137;-66
2021/05/24 00:30:44;;;;;;;8.38;2.80;;;;;;;11.29;73.43;99898.06;5021542;28;20088;-67
2021/05/24 00:33:11;;;;;;;9.05;2.70;;;;;;;11.31;72.47;99911.31;5009773;28;20084;-68
2021/05/24 00:35:37;;;;;;;8.15;2.90;;;;;;;11.34;73.02;99903.25;5003272;28;20255;-66
2021/05/24 00:38:23;;;;;;;4.80;2.47;;;;;;;11.36;72.76;99904.97;5022419;28;20511;-72
2021/05/24 00:40:50;;;;;;;12.30;2.80;;;;;;;11.32;73.18;99878.53;5018488;28;20049;-65
2021/05/24 00:43:16;;;;;;;6.15;2.40;;;;;;;11.42;72.04;99906.63;5009241;28;20136;-67
2021/05/24 00:45:42;;;;;;;12.23;2.80;;;;;;;11.34;72.21;99877.59;5006061;28;20041;-66
2021/05/24 00:48:10;;;;;;;8.98;2.78;;;;;;;11.30;72.04;99896.25;5005978;28;20049;-67
2021/05/24 00:50:38;;;;;;;10.25;2.70;;;;;;;11.37;72.79;99903.19;5031405;28;20140;-66
2021/05/24 00:53:06;;;;;;;7.55;2.90;;;;;;;11.37;72.72;99909.41;5022936;28;20045;-66
2021/05/24 00:55:32;;;;;;;6.32;2.50;;;;;;;11.44;72.07;99912.78;5002520;28;20053;-67
2021/05/24 00:57:58;;;;;;;9.88;2.67;;;;;;;11.57;71.72;99906.31;5019306;28;20089;-70
2021/05/24 01:00:40;;;;;;;10.38;2.70;;;;;;;11.48;71.71;99894.09;5006438;28;20112;-69
2021/05/24 01:03:07;;;;;;;12.75;2.95;;;;;;;11.43;71.79;99892.47;5013581;28;20095;-69
2021/05/24 01:05:35;;;;;;;8.60;2.80;;;;;;;11.29;72.72;99886.56;5024163;28;20073;-71
2021/05/24 01:08:03;;;;;;;7.22;2.90;;;;;;;11.16;73.41;99882.41;5022287;28;20045;-69
2021/05/24 01:10:29;;;;;;;8.00;2.58;;;;;;;11.13;73.14;99883.38;5017216;28;20057;-70
2021/05/24 01:13:05;;;;;;;9.35;3.20;;;;;;;11.25;72.98;99867.19;5007649;28;20127;-67
2021/05/24 01:15:31;;;;;;;12.55;3.25;;;;;;;11.26;72.76;99866.25;5003117;28;20127;-70
2021/05/24 01:17:59;;;;;;;5.65;3.03;;;;;;;11.01;73.89;99854.44;5021849;28;20557;-69
2021/05/24 01:20:28;;;;;;;10.35;3.92;;;;;;;11.06;74.38;99883.50;5020981;28;20778;-70
2021/05/24 01:25:31;;;;;;;4.85;2.83;;;;;;;10.97;72.91;99870.41;5021047;28;20069;-73
2021/05/24 01:27:58;;;;;;;8.73;2.97;;;;;;;11.06;72.71;99881.72;5023096;28;20434;-68
2021/05/24 01:30:24;;;;;;;11.75;2.90;;;;;;;11.15;72.69;99883.34;5026497;28;20056;-65
2021/05/24 01:32:50;;;;;;;6.72;3.28;;;;;;;11.05;73.00;99868.50;5026558;28;20080;-65
2021/05/24 01:35:17;;;;;;;8.90;2.97;;;;;;;10.98;73.89;99886.31;5022557;28;20072;-68
2021/05/24 01:37:42;;;;;;;14.45;3.28;;;;;;;11.07;73.40;99894.09;5026769;28;20145;-70
2021/05/24 01:40:09;;;;;;;12.05;3.03;;;;;;;11.20;73.11;99894.72;5020410;28;20755;-73
2021/05/24 01:42:35;;;;;;;7.70;2.85;;;;;;;11.31;72.97;99892.72;5026200;28;20041;-72
2021/05/24 01:45:01;;;;;;;5.57;2.63;;;;;;;11.37;72.61;99888.16;5025499;28;20079;-70
2021/05/24 01:47:27;;;;;;;13.18;2.95;;;;;;;11.44;72.25;99899.53;5026784;28;20529;-70
2021/05/24 01:49:53;;;;;;;5.53;2.55;;;;;;;11.36;72.27;99897.00;5027705;28;20500;-72
2021/05/24 01:52:20;;;;;;;6.68;2.60;;;;;;;11.59;71.09;99896.53;5011115;28;20108;-69
2021/05/24 01:54:47;;;;;;;8.73;2.65;;;;;;;11.59;70.67;99891.22;5023830;28;20191;-70
2021/05/24 01:57:13;;;;;;;4.90;2.58;;;;;;;11.64;70.97;99908.84;5031372;28;20049;-70
2021/05/24 01:59:40;;;;;;;6.10;2.70;;;;;;;11.68;70.47;99912.28;5009044;28;20049;-74
2021/05/24 02:02:07;;;;;;;11.18;2.53;;;;;;;11.58;71.20;99914.25;5009270;28;20150;-69
2021/05/24 02:04:34;;;;;;;13.93;2.92;;;;;;;11.34;72.00;99912.09;5010511;28;20041;-69
2021/05/24 02:07:01;;;;;;;7.55;2.75;;;;;;;11.18;72.75;99921.28;5023220;28;20078;-70
2021/05/24 02:09:28;;;;;;;8.63;2.63;;;;;;;11.12;73.24;99925.84;5001114;28;20057;-70
2021/05/24 02:11:54;;;;;;;6.75;3.00;;;;;;;11.19;73.00;99923.03;4999113;28;20046;-69
2021/05/24 02:14:21;;;;;;;7.97;2.72;;;;;;;11.35;72.31;99915.66;5016613;28;20045;-71
2021/05/24 02:16:52;;;;;;;9.73;2.70;;;;;;;11.61;71.56;99916.88;5026547;28;20045;-72
2021/05/24 02:19:19;;;;;;;21.90;3.33;;;;;;;11.76;70.90;99920.97;5026754;28;20177;-71
2021/05/24 02:21:45;;;;;;;6.25;2.75;;;;;;;11.84;70.66;99926.97;5006823;28;20034;-70
2021/05/24 02:24:12;;;;;;;7.88;2.58;;;;;;;11.65;70.59;99926.53;5006771;28;20042;-70
2021/05/24 02:26:41;;;;;;;5.90;2.92;;;;;;;11.52;71.88;99937.41;5017939;28;20053;-69
2021/05/24 02:29:08;;;;;;;5.43;3.30;;;;;;;11.41;72.16;99942.94;4986279;28;20052;-67
2021/05/24 02:31:35;;;;;;;14.90;4.30;;;;;;;11.45;72.00;99949.94;5023279;28;20037;-69
2021/05/24 02:34:03;;;;;;;8.48;3.42;;;;;;;11.50;71.89;99942.75;5026299;28;20068;-67
2021/05/24 02:36:29;;;;;;;11.23;4.28;;;;;;;11.65;71.11;99941.56;5027232;28;20053;-67
2021/05/24 02:38:56;;;;;;;12.93;2.92;;;;;;;11.59;71.64;99955.81;5024715;28;20071;-70
2021/05/24 02:41:22;;;;;;;6.35;2.95;;;;;;;11.70;71.13;99937.03;5025957;28;20119;-70
2021/05/24 02:43:48;;;;;;;12.55;3.20;;;;;;;11.85;70.68;99971.22;5020387;28;20053;-69
2021/05/24 02:46:14;;;;;;;7.50;3.45;;;;;;;11.75;70.94;99969.69;5007522;28;20045;-69
2021/05/24 02:48:40;;;;;;;8.43;3.03;;;;;;;11.81;70.75;99964.25;5008239;28;20061;-70
2021/05/24 02:51:07;;;;;;;12.38;3.33;;;;;;;11.71;70.79;99949.41;5003933;28;20057;-68
2021/05/24 02:53:34;;;;;;;7.45;3.53;;;;;;;11.81;70.49;99964.25;4993431;28;20049;-69
2021/05/24 02:56:00;;;;;;;5.60;2.58;;;;;;;11.67;71.75;99969.84;5008987;28;20049;-69
2021/05/24 02:58:26;;;;;;;7.82;2.50;;;;;;;11.75;71.80;99965.25;5023493;28;20044;-68
2021/05/24 03:00:52;;;;;;;6.13;2.40;;;;;;;11.74;71.51;99967.94;5022399;28;20049;-68
2021/05/24 03:03:21;;;;;;;4.45;2.60;;;;;;;11.92;71.14;99970.19;5040586;28;20121;-71
2021/05/24 03:05:47;;;;;;;8.38;2.75;;;;;;;12.15;70.52;99967.91;5014348;28;20620;-69
2021/05/24 03:08:13;;;;;;;10.77;2.63;;;;;;;12.09;70.28;99955.63;5013458;28;20045;-70
2021/05/24 03:10:42;;;;;;;13.00;3.00;;;;;;;12.11;69.94;99971.53;5024677;28;20098;-67
2021/05/24 03:13:08;;;;;;;6.30;2.40;;;;;;;12.24;69.91;99971.22;5005149;28;20041;-70
2021/05/24 03:15:35;;;;;;;4.72;2.30;;;;;;;12.29;69.63;99965.78;5021670;28;20052;-72
2021/05/24 03:18:01;;;;;;;7.97;2.33;;;;;;;12.21;70.02;99967.75;4980806;28;20630;-70
2021/05/24 03:20:27;;;;;;;10.93;3.00;;;;;;;12.27;70.14;99971.13;5001917;28;20503;-71
2021/05/24 03:22:52;;;;;;;6.35;3.13;;;;;;;12.37;69.94;99950.50;5033482;28;20049;-71
2021/05/24 03:25:19;;;;;;;4.47;2.65;;;;;;;12.36;68.33;99936.34;5019545;28;20141;-69
2021/05/24 03:27:46;;;;;;;8.35;2.45;;;;;;;12.59;68.43;99954.41;5005962;28;20049;-68
2021/05/24 03:30:13;;;;;;;8.63;2.88;;;;;;;12.61;68.17;99953.44;5021039;28;20060;-71
2021/05/24 03:32:40;;;;;;;11.07;2.60;;;;;;;12.61;66.84;99936.59;5000997;28;20064;-70
2021/05/24 03:35:08;;;;;;;11.85;3.08;;;;;;;12.80;67.06;99943.19;5019190;28;20063;-71
2021/05/24 03:37:34;;;;;;;15.05;2.90;;;;;;;12.70;66.65;99955.00;5022206;28;20426;-70
2021/05/24 03:39:59;;;;;;;15.65;2.95;;;;;;;12.76;66.85;99954.84;4989238;28;20503;-70
2021/05/24 03:42:27;;;;;;;11.35;3.08;;;;;;;12.57;67.14;99946.47;5004637;28;20045;-66
2021/05/24 03:44:53;;;;;;;9.27;2.97;;;;;;;12.90;66.33;99953.56;5037309;28;20063;-67
2021/05/24 03:47:19;;;;;;;5.10;2.40;;;;;;;12.84;66.17;99956.41;5018295;28;20050;-70
2021/05/24 03:49:45;;;;;;;6.65;2.17;;;;;;;12.78;66.21;99961.88;5013624;28;20041;-67
2021/05/24 03:52:17;;;;;;;6.57;2.33;;;;;;;12.91;65.80;99965.97;5003814;28;20053;-68
2021/05/24 03:54:44;;;;;;;5.40;2.20;;;;;;;12.89;66.14;99975.78;5009125;28;20041;-70
2021/05/24 03:57:11;;;;;;;6.97;2.30;;;;;;;12.97;65.28;99975.56;5017249;28;20046;-67
2021/05/24 03:59:38;;;;;;;4.65;2.20;;;;;;;12.96;65.52;99976.47;4981234;28;20068;-67
2021/05/24 04:02:04;;;;;;;7.35;2.17;;;;;;;13.03;64.93;99976.34;5023527;28;20123;-69
2021/05/24 04:04:30;;;;;;;8.60;2.45;;;;;;;13.21;65.11;99989.13;5009538;28;20076;-68
2021/05/24 04:06:58;;;;;;;7.60;3.42;;;;;;;13.24;64.05;99983.72;5006835;28;20045;-72
2021/05/24 04:09:25;;;;;;;6.05;2.30;;;;;;;13.29;63.62;99981.81;5024265;28;20872;-70
2021/05/24 04:11:51;;;;;;;10.43;2.40;;;;;;;13.32;64.49;99994.16;5009278;28;20460;-69
2021/05/24 04:14:17;;;;;;;6.75;2.60;;;;;;;13.42;63.97;100006.34;5018081;28;20068;-70
2021/05/24 04:16:45;;;;;;;12.63;3.10;;;;;;;13.49;63.79;100019.44;5016813;28;20073;-71
2021/05/24 04:19:12;;;;;;;6.55;2.85;;;;;;;13.40;64.01;100029.47;4988009;28;20137;-70
2021/05/24 04:21:40;;;;;;;6.00;2.65;;;;;;;13.49;63.80;100039.88;5008791;28;20041;-73
2021/05/24 04:24:07;;;;;;;11.65;3.10;;;;;;;13.39;64.45;100047.25;5003991;28;20045;-71
2021/05/24 04:26:34;;;;;;;13.10;2.65;;;;;;;13.52;63.48;100066.41;5013473;28;20175;-70
2021/05/24 04:29:00;;;;;;;7.85;2.38;;;;;;;13.42;62.87;100071.13;5013341;28;20148;-72
2021/05/24 04:31:26;;;;;;;6.63;2.38;;;;;;;13.51;62.15;100088.66;4990108;28;20124;-71
2021/05/24 04:33:53;;;;;;;15.75;2.60;;;;;;;13.60;61.87;100113.25;5000164;28;20052;-70
2021/05/24 04:36:18;;;;;;;8.15;2.22;;;;;;;13.64;62.54;100130.91;5014882;28;20396;-70
2021/05/24 04:38:45;;;;;;;3.08;1.83;;;;;;;13.70;62.25;100128.06;5009724;28;20045;-76
2021/05/24 04:41:11;;;;;;;7.25;1.80;;;;;;;13.80;61.93;100126.03;5021841;28;20061;-71
2021/05/24 04:43:39;;;;;;;10.77;3.30;;;;;;;13.73;61.52;100129.81;5019209;28;20815;-71
2021/05/24 04:46:05;;;;;;;11.25;2.17;;;;;;;13.76;62.13;100132.38;5020052;28;20041;-70
2021/05/24 04:48:33;;;;;;;9.75;1.65;;;;;;;13.78;62.33;100126.06;5008918;28;20561;-69
2021/05/24 04:50:59;;;;;;;8.63;1.50;;;;;;;13.85;61.21;100106.34;5007734;28;20054;-71
2021/05/24 04:53:25;;;;;;;6.43;1.60;;;;;;;13.80;60.80;100123.38;5024300;28;20132;-69
2021/05/24 04:55:51;;;;;;;11.35;1.67;;;;;;;13.94;61.68;100132.75;5006669;28;20445;-69
2021/05/24 04:58:17;;;;;;;5.25;1.65;;;;;;;14.04;60.87;100137.84;5017917;28;20179;-77
2021/05/24 05:00:42;;;;;;;6.78;1.88;;;;;;;14.11;59.94;100132.28;5019719;28;20477;-70
2021/05/24 05:03:09;;;;;;;6.00;1.52;;;;;;;14.01;59.50;100130.81;5021036;28;20104;-69
2021/05/24 05:05:35;;;;;;;2.63;1.20;;;;;;;14.04;59.15;100136.03;5014875;28;20034;-70
2021/05/24 05:08:01;;;;;;;2.83;1.30;;;;;;;14.17;59.08;100121.44;5021862;28;20129;-68
2021/05/24 05:10:27;;;;;;;12.45;1.60;;;;;;;14.48;58.86;100154.31;5008604;28;20129;-70
2021/05/24 05:12:53;;;;;;;8.38;1.27;;;;;;;14.50;58.30;100160.50;5015439;28;20126;-70
2021/05/24 05:15:19;;;;;;;3.72;1.20;;;;;;;14.56;57.16;100159.44;5015965;28;20065;-71
2021/05/24 05:17:45;;;;;;;4.55;1.00;;;;;;;14.62;56.12;100162.81;5026512;28;20087;-69
2021/05/24 05:20:12;;;;;;;7.50;1.17;;;;;;;14.65;56.25;100177.84;5009954;28;20115;-69
2021/05/24 05:22:38;;;;;;;4.15;1.10;;;;;;;14.77;54.95;100170.34;5006481;28;20037;-69
2021/05/24 05:25:05;;;;;;;6.53;0.90;;;;;;;14.89;54.65;100182.44;5023310;28;20061;-71
2021/05/24 05:27:32;;;;;;;4.82;1.08;;;;;;;14.94;54.53;100162.69;5007548;28;20056;-69
2021/05/24 05:29:58;;;;;;;5.80;1.10;;;;;;;14.92;55.09;100167.22;5008964;28;20569;-68
2021/05/24 05:32:23;;;;;;;3.05;1.10;;;;;;;15.03;55.40;100193.59;5025042;28;20053;-70
2021/05/24 05:34:49;;;;;;;3.28;1.20;;;;;;;15.12;54.00;100187.94;5022239;28;20148;-68
2021/05/24 05:37:16;;;;;;;5.35;0.85;;;;;;;15.10;53.60;100204.03;5022007;28;20540;-72
2021/05/24 05:39:42;;;;;;;2.10;0.90;;;;;;;15.10;52.46;100204.03;5007155;28;20073;-72
2021/05/24 05:42:08;;;;;;;4.95;0.90;;;;;;;15.15;53.08;100198.53;5004825;28;20139;-73
2021/05/24 05:44:34;;;;;;;3.53;0.80;;;;;;;15.25;52.95;100205.31;5022052;28;20260;-72
2021/05/24 05:47:00;;;;;;;3.78;1.02;;;;;;;15.47;52.31;100209.97;5020708;28;20139;-73
2021/05/24 05:49:26;;;;;;;2.95;1.00;;;;;;;15.44;52.20;100198.50;5024586;28;20136;-70
2021/05/24 05:51:51;;;;;;;5.78;1.25;;;;;;;15.36;50.55;100196.09;5023079;28;20543;-69
2021/05/24 05:54:17;;;;;;;5.07;0.90;;;;;;;15.39;50.94;100195.97;5006727;28;20060;-74
2021/05/24 05:56:43;;;;;;;2.08;0.90;;;;;;;15.41;50.79;100187.91;5016810;28;20068;-70
2021/05/24 05:59:09;;;;;;;3.53;0.88;;;;;;;15.43;50.29;100186.06;5023370;28;20506;-72
2021/05/24 06:01:35;;;;;;;3.40;0.82;;;;;;;15.56;51.20;100174.94;5023087;28;20109;-74
2021/05/24 06:04:02;;;;;;;5.93;1.00;;;;;;;15.59;50.71;100172.13;5008265;28;20045;-72
2021/05/24 06:06:28;;;;;;;1.52;0.77;;;;;;;15.52;50.48;100146.56;5024514;28;20048;-70
2021/05/24 06:08:54;;;;;;;6.35;1.05;;;;;;;15.62;50.40;100172.03;5020818;28;20041;-73
2021/05/24 06:11:20;;;;;;;5.43;1.20;;;;;;;15.67;50.66;100172.75;5025678;28;20480;-73
2021/05/24 06:13:46;;;;;;;2.70;1.00;;;;;;;15.65;50.49;100174.63;5023542;28;20479;-70
2021/05/24 06:16:14;;;;;;;2.58;0.85;;;;;;;15.81;51.16;100166.94;5008177;28;20052;-70
2021/05/24 06:18:40;;;;;;;2.70;1.00;;;;;;;15.82;50.20;100176.72;4989114;28;20083;-69
2021/05/24 06:21:07;;;;;;;1.50;1.13;;;;;;;15.77;50.58;100146.56;5024211;28;20220;-72
2021/05/24 06:23:32;;;;;;;4.90;1.05;;;;;;;16.07;50.45;100149.06;5025703;28;20080;-72
2021/05/24 06:25:58;;;;;;;2.10;0.82;;;;;;;16.06;50.46;100146.44;5006706;28;20042;-75
2021/05/24 06:28:24;;;;;;;4.57;1.48;;;;;;;16.16;51.66;100140.69;5024653;28;20056;-72
2021/05/24 06:30:50;;;;;;;5.10;1.20;;;;;;;16.29;51.32;100122.34;5006728;28;20049;-69
2021/05/24 06:33:16;;;;;;;3.22;0.73;;;;;;;16.32;50.51;100133.84;5025979;28;20410;-70
2021/05/24 06:35:42;;;;;;;6.65;0.90;;;;;;;16.29;49.36;100128.59;5023179;28;20076;-76
2021/05/24 06:38:08;;;;;;;2.72;0.73;;;;;;;16.23;48.65;100127.94;5008932;28;20076;-76
2021/05/24 06:40:34;;;;;;;2.42;0.80;;;;;;;16.21;49.17;100111.94;5027004;28;20068;-72
2021/05/24 06:43:00;;;;;;;3.00;1.52;;;;;;;16.29;49.49;100117.00;5025606;28;20060;-82
2021/05/24 06:45:27;;;;;;;5.55;1.27;;;;;;;16.42;49.91;100140.59;5018746;28;20107;-70
2021/05/24 06:47:53;;;;;;;6.88;1.27;;;;;;;16.56;49.41;100140.09;5026266;28;20120;-75
2021/05/24 06:50:20;;;;;;;2.50;0.93;;;;;;;16.57;49.05;100132.00;5007496;28;20068;-68
2021/05/24 06:52:46;;;;;;;4.88;1.08;;;;;;;16.63;48.45;100141.59;5005640;28;20443;-71
2021/05/24 06:55:12;;;;;;;8.48;0.90;;;;;;;16.59;48.33;100156.94;5024851;28;20045;-70
2021/05/24 06:57:39;;;;;;;1.25;0.80;;;;;;;16.81;48.63;100157.81;4990845;28;20135;-72
2021/05/24 07:00:11;;;;;;;6.38;1.15;;;;;;;17.02;49.26;100159.66;5005081;28;20103;-70
2021/05/24 07:02:42;;;;;;;7.18;1.08;;;;;;;17.25;48.31;100150.72;5010718;28;20503;-68
2021/05/24 07:05:09;;;;;;;4.95;2.22;;;;;;;17.46;47.13;100145.38;5018300;28;20038;-71
2021/05/24 07:07:36;;;;;;;5.53;2.72;;;;;;;17.71;46.14;100170.22;5020016;28;20130;-79
2021/05/24 07:10:03;;;;;;;3.13;1.17;;;;;;;18.01;45.26;100168.88;5008392;28;20045;-71
2021/05/24 07:12:30;;;;;;;3.10;1.13;;;;;;;18.37;44.96;100165.53;5022439;28;20514;-69
2021/05/24 07:14:56;;;;;;;3.17;1.30;;;;;;;18.44;44.52;100169.69;5021764;28;20046;-69
2021/05/24 07:17:23;;;;;;;3.25;0.80;;;;;;;18.62;43.61;100163.50;5011386;28;20524;-71
2021/05/24 07:19:50;;;;;;;8.20;0.90;;;;;;;18.96;42.72;100158.25;5022786;28;20499;-69
2021/05/24 07:22:18;;;;;;;4.07;0.88;;;;;;;19.44;41.95;100167.53;5014957;28;20042;-69
2021/05/24 07:24:43;;;;;;;6.75;0.95;;;;;;;19.65;41.64;100166.47;5013780;28;20535;-79
2021/05/24 07:27:09;;;;;;;5.63;1.30;;;;;;;20.11;41.00;100190.13;5014806;28;20160;-69
2021/05/24 07:29:35;;;;;;;15.43;1.98;;;;;;;19.83;41.59;100191.56;5028216;28;20049;-68
2021/05/24 07:32:01;;;;;;;6.22;2.20;;;;;;;19.64;41.29;100186.25;5027442;28;20096;-69
2021/05/24 07:34:28;;;;;;;1.85;0.95;;;;;;;20.04;40.50;100202.13;4991804;28;20115;-68
2021/05/24 07:36:54;;;;;;;6.47;1.42;;;;;;;20.67;39.52;100196.06;5019012;28;20414;-69
2021/05/24 07:39:20;;;;;;;5.18;0.90;;;;;;;20.35;40.74;100218.47;5013973;28;20404;-78
2021/05/24 07:41:46;;;;;;;10.15;1.13;;;;;;;20.37;39.81;100178.81;5022208;28;20049;-69
2021/05/24 07:44:13;;;;;;;7.05;1.00;;;;;;;21.75;37.32;100208.78;5006435;28;20068;-76
2021/05/24 07:46:39;;;;;;;6.35;1.40;;;;;;;21.60;37.25;100206.09;5012557;28;20430;-75
2021/05/24 07:49:05;;;;;;;2.88;0.90;;;;;;;21.83;36.15;100203.81;5006621;28;20044;-76
2021/05/24 07:51:34;;;;;;;6.25;1.30;;;;;;;21.51;36.95;100217.38;5005052;28;20054;-75
2021/05/24 07:54:00;;;;;;;2.38;0.93;;;;;;;21.61;36.77;100208.66;5009195;28;20049;-71
2021/05/24 07:56:26;;;;;;;7.55;1.15;;;;;;;21.60;36.48;100222.28;5012224;28;20049;-75
2021/05/24 07:58:52;;;;;;;2.13;0.95;;;;;;;22.26;34.77;100226.41;5009232;28;20510;-73
2021/05/24 08:01:18;;;;;;;3.38;1.10;;;;;;;23.12;33.90;100229.13;4989640;28;20414;-74
2021/05/24 08:03:44;;;;;;;2.20;1.20;;;;;;;23.22;33.07;100231.19;4986674;28;20045;-73
2021/05/24 08:06:10;;;;;;;6.68;1.02;;;;;;;23.72;32.08;100236.91;5018394;28;20448;-73
2021/05/24 08:08:36;;;;;;;8.40;1.05;;;;;;;24.93;29.21;100243.81;5014282;28;20056;-75
2021/05/24 08:11:02;;;;;;;5.93;1.02;;;;;;;25.25;29.10;100247.84;5001050;28;20906;-73
2021/05/24 08:13:29;;;;;;;5.13;1.05;;;;;;;26.06;27.98;100256.34;5032661;28;20152;-71
2021/05/24 08:15:55;;;;;;;3.72;0.90;;;;;;;27.12;26.82;100239.72;5018529;28;20050;-71
2021/05/24 08:18:22;;;;;;;7.63;0.90;;;;;;;27.63;26.11;100257.31;5020215;28;20141;-73
2021/05/24 08:20:50;;;;;;;3.83;1.40;;;;;;;26.72;27.33;100253.88;5033696;28;20508;-71
2021/05/24 08:23:17;;;;;;;5.55;1.33;;;;;;;27.03;26.36;100264.09;5028684;28;20092;-73
2021/05/24 08:25:42;;;;;;;2.97;1.00;;;;;;;27.69;25.69;100264.97;5015791;28;20041;-73
2021/05/24 08:28:08;;;;;;;3.50;1.25;;;;;;;29.52;23.87;100270.81;5023440;28;20865;-73
2021/05/24 08:30:34;;;;;;;1.55;0.73;;;;;;;26.98;26.69;100263.59;5016829;28;20069;-73
2021/05/24 08:33:01;;;;;;;6.10;1.20;;;;;;;26.87;26.33;100249.94;5017584;28;20104;-70
2021/05/24 08:35:27;;;;;;;9.27;1.25;;;;;;;27.68;26.20;100265.97;5019357;28;20050;-74
2021/05/24 08:37:53;;;;;;;3.80;0.80;;;;;;;26.97;26.09;100254.53;5021404;28;20065;-71
2021/05/24 08:40:19;;;;;;;10.30;1.02;;;;;;;27.83;25.24;100269.31;5031973;28;20199;-72
2021/05/24 08:42:46;;;;;;;5.28;1.02;;;;;;;26.48;26.74;100259.34;5003847;28;20403;-73
2021/05/24 08:45:13;;;;;;;6.40;0.90;;;;;;;24.53;29.81;100247.56;5017684;28;20445;-71
2021/05/24 08:47:39;;;;;;;10.75;0.90;;;;;;;23.15;32.33;100262.31;4986194;28;20479;-68
2021/05/24 08:50:06;;;;;;;6.47;0.90;;;;;;;22.28;34.44;100265.03;5013855;28;20051;-69
2021/05/24 08:52:33;;;;;;;3.42;0.82;;;;;;;24.08;31.23;100253.44;4987853;28;20064;-69
2021/05/24 08:54:59;;;;;;;3.30;1.00;;;;;;;22.79;32.84;100236.69;5006001;28;20482;-67
2021/05/24 08:57:26;;;;;;;2.25;0.98;;;;;;;22.63;32.95;100252.13;5011623;28;20561;-67
2021/05/24 08:59:52;;;;;;;1.98;0.77;;;;;;;22.26;33.73;100248.03;5024442;28;20474;-72
2021/05/24 09:02:19;;;;;;;7.45;0.77;;;;;;;21.85;34.68;100255.03;4991808;28;20707;-68
2021/05/24 09:04:48;;;;;;;5.45;0.73;;;;;;;21.59;35.21;100244.81;4992290;28;20056;-64
2021/05/24 09:07:18;;;;;;;5.53;1.20;;;;;;;23.19;33.03;100254.84;5009549;28;20069;-72
2021/05/24 09:09:58;;;;;;;3.80;1.08;;;;;;;25.72;28.76;100255.25;5025745;28;20052;-67
2021/05/24 09:12:31;;;;;;;2.60;1.40;;;;;;;26.32;27.82;100264.25;5023244;28;20512;-66
2021/05/24 09:14:59;;;;;;;2.45;0.93;;;;;;;26.26;27.71;100245.66;5015427;28;20041;-69
2021/05/24 09:17:49;;;;;;;3.45;1.25;;;;;;;27.54;25.77;100249.88;5006604;28;20049;-66
2021/05/24 09:20:23;;;;;;;2.13;1.60;;;;;;;26.71;27.70;100263.91;5018408;28;20050;-66
2021/05/24 09:23:04;;;;;;;3.70;0.80;;;;;;;25.69;28.28;100229.16;5013115;28;20037;-71
2021/05/24 09:25:57;;;;;;;2.38;0.65;;;;;;;23.80;31.25;100241.78;5022640;28;20041;-71
2021/05/24 09:28:27;;;;;;;3.38;0.77;;;;;;;23.50;31.74;100244.69;5004176;28;20996;-71
2021/05/24 09:30:56;;;;;;;6.88;1.35;;;;;;;23.92;31.92;100243.72;5003892;28;20156;-72
2021/05/24 09:33:24;;;;;;;7.40;1.17;;;;;;;25.73;28.75;100256.97;5022836;28;20045;-69
2021/05/24 09:35:52;;;;;;;6.32;1.35;;;;;;;24.53;30.02;100235.88;5025312;28;20521;-68
2021/05/24 09:38:24;;;;;;;5.40;0.70;;;;;;;25.60;28.32;100245.28;5022254;28;20132;-70
2021/05/24 09:40:56;;;;;;;4.20;1.20;;;;;;;24.65;29.20;100235.91;5003215;28;20053;-71
2021/05/24 09:43:34;;;;;;;16.88;1.50;;;;;;;23.83;31.14;100230.75;5014645;28;20081;-73
2021/05/24 09:46:18;;;;;;;3.53;1.60;;;;;;;26.66;27.64;100238.03;5010245;28;20439;-68
2021/05/24 09:48:52;;;;;;;1.90;1.00;;;;;;;25.53;28.51;100204.13;5004632;28;20265;-69
2021/05/24 09:51:22;;;;;;;2.35;0.73;;;;;;;25.14;29.20;100265.84;5012668;28;20077;-72
2021/05/24 09:54:05;;;;;;;4.72;0.88;;;;;;;24.65;30.07;100238.59;5023412;28;20096;-69
2021/05/24 09:56:37;;;;;;;3.78;1.42;;;;;;;24.68;30.35;100242.97;5022560;28;20052;-74
2021/05/24 09:59:02;;;;;;;4.45;1.38;;;;;;;26.77;26.79;100243.53;5037052;28;20052;-71
2021/05/24 10:01:35;;;;;;;5.75;0.75;;;;;;;27.16;26.23;100232.16;5027272;28;20061;-69
2021/05/24 10:04:03;;;;;;;4.68;1.20;;;;;;;29.72;23.90;100249.00;5026135;28;20034;-76
2021/05/24 10:06:29;;;;;;;6.10;1.77;;;;;;;28.11;25.04;100234.16;5043173;28;20038;-72
2021/05/24 10:08:55;;;;;;;2.42;1.10;;;;;;;27.97;25.20;100223.53;5022660;28;20069;-70
2021/05/24 10:11:23;;;;;;;3.45;0.73;;;;;;;29.20;24.10;100236.41;5024606;28;20049;-69
2021/05/24 10:13:49;;;;;;;3.92;1.15;;;;;;;29.78;23.57;100241.09;5007909;28;20537;-72
2021/05/24 10:16:16;;;;;;;6.18;1.58;;;;;;;28.64;24.29;100235.06;5018486;28;20128;-71
2021/05/24 10:18:42;;;;;;;7.38;1.80;;;;;;;27.44;25.39;100223.50;4998761;28;20059;-72
2021/05/24 10:21:09;;;;;;;8.45;1.70;;;;;;;26.84;26.44;100225.69;5022065;28;20080;-72
2021/05/24 10:23:35;;;;;;;6.20;2.00;;;;;;;25.68;27.64;100227.41;5023923;28;20041;-72
2021/05/24 10:26:04;;;;;;;3.70;1.50;;;;;;;28.32;24.35;100231.47;5024259;28;20044;-70
2021/05/24 10:28:32;;;;;;;2.28;0.70;;;;;;;28.82;24.08;100226.13;5025076;28;20495;-71
2021/05/24 10:30:59;;;;;;;3.58;1.50;;;;;;;27.49;25.56;100211.22;5021275;28;20160;-71
2021/05/24 10:33:45;;;;;;;4.47;0.88;;;;;;;25.85;27.33;100213.44;5025336;28;20041;-67
2021/05/24 10:36:16;;;;;;;3.17;1.08;;;;;;;25.14;29.26;100204.31;5022437;28;20069;-71
2021/05/24 10:38:43;;;;;;;8.98;1.05;;;;;;;25.09;29.25;100206.50;5023024;28;20049;-69
2021/05/24 10:41:16;;;;;;;3.15;1.10;;;;;;;24.63;29.22;100194.47;5036271;28;20128;-67
2021/05/24 10:43:47;;;;;;;4.25;1.40;;;;;;;25.82;27.85;100200.09;5003133;28;20045;-70
2021/05/24 10:46:26;;;;;;;4.25;0.80;;;;;;;24.42;29.73;100193.25;5019372;28;20217;-68
2021/05/24 10:49:03;;;;;;;2.33;0.70;;;;;;;23.52;30.64;100175.06;5025720;28;20121;-72
2021/05/24 10:51:51;;;;;;;2.10;0.82;;;;;;;23.62;31.62;100207.81;5007361;28;20168;-74
2021/05/24 10:54:20;;;;;;;8.00;0.68;;;;;;;24.47;29.30;100204.63;4990358;28;20442;-77
2021/05/24 10:57:13;;;;;;;5.90;0.90;;;;;;;24.22;29.55;100209.13;5006826;28;20050;-73
2021/05/24 10:59:39;;;;;;;7.55;1.10;;;;;;;27.20;26.08;100217.28;5023023;28;20056;-75
2021/05/24 11:02:23;;;;;;;2.42;1.15;;;;;;;27.80;25.16;100209.59;5024392;28;20778;-75
2021/05/24 11:04:56;;;;;;;4.25;1.20;;;;;;;28.32;23.91;100218.69;5025107;28;20049;-73
2021/05/24 11:07:24;;;;;;;2.67;0.68;;;;;;;29.43;21.85;100213.38;5023168;28;20060;-73
2021/05/24 11:09:50;;;;;;;6.13;1.02;;;;;;;27.77;24.62;100210.66;5005461;28;20049;-74
2021/05/24 11:12:31;;;;;;;2.25;0.82;;;;;;;26.43;25.92;100219.88;5023913;28;20081;-73
2021/05/24 11:15:11;;;;;;;4.27;0.93;;;;;;;27.24;25.80;100218.81;5022377;28;20052;-75
2021/05/24 11:17:59;;;;;;;8.57;0.80;;;;;;;28.02;24.42;100232.22;4991575;28;20137;-72
2021/05/24 11:20:51;;;;;;;2.70;0.70;;;;;;;27.94;24.69;100217.47;5007444;28;20098;-72
2021/05/24 11:28:31;;;;;;;3.90;0.73;;;;;;;26.26;26.35;100218.47;5018597;28;20131;-74
2021/05/24 11:31:08;;;;;;;1.75;0.50;;;;;;;27.12;25.10;100222.50;5003938;28;20677;-70
2021/05/24 11:33:37;;;;;;;6.15;0.68;;;;;;;28.23;23.90;100229.50;5008095;28;20053;-74
2021/05/24 11:36:06;;;;;;;3.08;0.82;;;;;;;27.12;24.97;100182.53;5007705;28;20133;-78
2021/05/24 11:38:36;;;;;;;3.97;0.80;;;;;;;26.46;26.36;100222.38;5002778;28;20033;-73